createdAt,value
2017-12-04T00:00:36.422Z,1015.17
2017-12-04T00:01:16.955Z,1015.2
2017-12-04T00:01:57.484Z,1015.25
2017-12-04T00:02:37.967Z,1015.26
2017-12-04T00:03:18.630Z,1015.23
2017-12-04T00:03:59.184Z,1015.2
2017-12-04T00:04:40.491Z,1015.25
2017-12-04T00:05:21.092Z,1015.31
2017-12-04T00:06:01.677Z,1015.25
2017-12-04T00:06:42.213Z,1015.27
2017-12-04T00:07:22.730Z,1015.27
2017-12-04T00:08:03.325Z,1015.3
2017-12-04T00:08:43.834Z,1015.3
2017-12-04T00:09:24.422Z,1015.3
2017-12-04T00:10:04.913Z,1015.36
2017-12-04T00:10:45.433Z,1015.3
2017-12-04T00:11:26.114Z,1015.33
2017-12-04T00:12:06.675Z,1015.31
2017-12-04T00:12:47.162Z,1015.35
2017-12-04T00:13:27.720Z,1015.31
2017-12-04T00:14:08.253Z,1015.33
2017-12-04T00:14:48.787Z,1015.29
2017-12-04T00:15:29.314Z,1015.37
2017-12-04T00:16:09.929Z,1015.36
2017-12-04T00:16:50.472Z,1015.31
2017-12-04T00:17:30.981Z,1015.34
2017-12-04T00:18:11.572Z,1015.32
2017-12-04T00:18:52.019Z,1015.36
2017-12-04T00:19:32.589Z,1015.29
2017-12-04T00:20:13.115Z,1015.27
2017-12-04T00:20:53.668Z,1015.29
2017-12-04T00:21:34.201Z,1015.3
2017-12-04T00:22:14.869Z,1015.31
2017-12-04T00:22:55.514Z,1015.3
2017-12-04T00:23:36.037Z,1015.36
2017-12-04T00:24:16.539Z,1015.37
2017-12-04T00:24:57.134Z,1015.32
2017-12-04T00:25:37.632Z,1015.31
2017-12-04T00:26:18.210Z,1015.34
2017-12-04T00:26:58.681Z,1015.28
2017-12-04T00:27:39.191Z,1015.27
2017-12-04T00:28:19.848Z,1015.32
2017-12-04T00:29:00.390Z,1015.28
2017-12-04T00:29:40.877Z,1015.33
2017-12-04T00:30:21.411Z,1015.27
2017-12-04T00:31:01.911Z,1015.32
2017-12-04T00:31:42.446Z,1015.28
2017-12-04T00:32:22.961Z,1015.3
2017-12-04T00:33:03.515Z,1015.34
2017-12-04T00:33:44.186Z,1015.27
2017-12-04T00:34:24.777Z,1015.35
2017-12-04T00:35:05.283Z,1015.29
2017-12-04T00:35:45.940Z,1015.29
2017-12-04T00:36:26.487Z,1015.26
2017-12-04T00:37:07.053Z,1015.25
2017-12-04T00:37:47.600Z,1015.27
2017-12-04T00:38:28.281Z,1015.33
2017-12-04T00:39:08.817Z,1015.31
2017-12-04T00:39:49.355Z,1015.33
2017-12-04T00:40:29.918Z,1015.36
2017-12-04T00:41:10.491Z,1015.33
2017-12-04T00:41:51.268Z,1015.33
2017-12-04T00:42:31.919Z,1015.31
2017-12-04T00:43:12.463Z,1015.36
2017-12-04T00:43:53.040Z,1015.34
2017-12-04T00:44:33.622Z,1015.4
2017-12-04T00:45:14.187Z,1015.42
2017-12-04T00:45:54.637Z,1015.33
2017-12-04T00:46:35.172Z,1015.38
2017-12-04T00:47:16.652Z,1015.41
2017-12-04T00:47:56.391Z,1015.38
2017-12-04T00:48:37.017Z,1015.34
2017-12-04T00:49:17.576Z,1015.4
2017-12-04T00:49:58.152Z,1015.35
2017-12-04T00:50:38.739Z,1015.35
2017-12-04T00:51:19.306Z,1015.4
2017-12-04T00:51:59.798Z,1015.39
2017-12-04T00:52:40.347Z,1015.37
2017-12-04T00:53:20.815Z,1015.43
2017-12-04T00:54:01.377Z,1015.44
2017-12-04T00:54:42.002Z,1015.44
2017-12-04T00:55:22.519Z,1015.38
2017-12-04T00:56:03.062Z,1015.4
2017-12-04T00:56:43.612Z,1015.47
2017-12-04T00:57:24.124Z,1015.41
2017-12-04T00:58:04.663Z,1015.41
2017-12-04T00:58:45.214Z,1015.42
2017-12-04T00:59:25.771Z,1015.44
2017-12-04T01:00:06.323Z,1015.48
2017-12-04T01:00:46.887Z,1015.44
2017-12-04T01:01:27.413Z,1015.43
2017-12-04T01:02:07.961Z,1015.4
2017-12-04T01:02:48.472Z,1015.39
2017-12-04T01:03:28.968Z,1015.41
2017-12-04T01:04:09.598Z,1015.4
2017-12-04T01:04:50.133Z,1015.36
2017-12-04T01:05:30.656Z,1015.41
2017-12-04T01:06:11.202Z,1015.4
2017-12-04T01:06:51.726Z,1015.36
2017-12-04T01:07:32.250Z,1015.35
2017-12-04T01:08:12.794Z,1015.34
2017-12-04T01:08:53.325Z,1015.38
2017-12-04T01:09:33.807Z,1015.39
2017-12-04T01:10:14.363Z,1015.44
2017-12-04T01:10:54.920Z,1015.45
2017-12-04T01:11:35.448Z,1015.45
2017-12-04T01:12:16.008Z,1015.44
2017-12-04T01:12:56.602Z,1015.44
2017-12-04T01:13:37.112Z,1015.47
2017-12-04T01:14:17.662Z,1015.38
2017-12-04T01:14:58.182Z,1015.39
2017-12-04T01:15:38.710Z,1015.41
2017-12-04T01:16:19.219Z,1015.41
2017-12-04T01:16:59.729Z,1015.41
2017-12-04T01:17:40.274Z,1015.43
2017-12-04T01:18:20.784Z,1015.39
2017-12-04T01:19:01.292Z,1015.46
2017-12-04T01:19:41.883Z,1015.45
2017-12-04T01:20:22.356Z,1015.47
2017-12-04T01:21:02.902Z,1015.41
2017-12-04T01:21:43.403Z,1015.44
2017-12-04T01:22:23.973Z,1015.44
2017-12-04T01:23:04.485Z,1015.51
2017-12-04T01:23:44.985Z,1015.49
2017-12-04T01:24:25.553Z,1015.47
2017-12-04T01:25:06.060Z,1015.46
2017-12-04T01:25:46.629Z,1015.49
2017-12-04T01:26:27.145Z,1015.49
2017-12-04T01:27:07.656Z,1015.52
2017-12-04T01:27:48.244Z,1015.54
2017-12-04T01:28:28.848Z,1015.53
2017-12-04T01:29:09.325Z,1015.52
2017-12-04T01:29:49.887Z,1015.54
2017-12-04T01:30:30.415Z,1015.57
2017-12-04T01:31:10.953Z,1015.55
2017-12-04T01:31:51.463Z,1015.56
2017-12-04T01:32:32.014Z,1015.56
2017-12-04T01:33:12.639Z,1015.64
2017-12-04T01:33:53.201Z,1015.6
2017-12-04T01:34:33.776Z,1015.58
2017-12-04T01:35:14.303Z,1015.6
2017-12-04T01:35:54.838Z,1015.58
2017-12-04T01:36:35.368Z,1015.65
2017-12-04T01:37:15.863Z,1015.61
2017-12-04T01:37:56.399Z,1015.6
2017-12-04T01:38:36.947Z,1015.59
2017-12-04T01:39:17.471Z,1015.56
2017-12-04T01:39:58.035Z,1015.6
2017-12-04T01:40:38.577Z,1015.56
2017-12-04T01:41:19.059Z,1015.55
2017-12-04T01:41:59.573Z,1015.54
2017-12-04T01:42:40.049Z,1015.64
2017-12-04T01:43:20.607Z,1015.59
2017-12-04T01:44:01.169Z,1015.63
2017-12-04T01:44:41.654Z,1015.66
2017-12-04T01:45:22.218Z,1015.71
2017-12-04T01:46:02.729Z,1015.71
2017-12-04T01:46:43.304Z,1015.7
2017-12-04T01:47:23.849Z,1015.74
2017-12-04T01:48:04.382Z,1015.75
2017-12-04T01:48:44.976Z,1015.79
2017-12-04T01:49:25.499Z,1015.81
2017-12-04T01:50:06.005Z,1015.77
2017-12-04T01:50:46.507Z,1015.78
2017-12-04T01:51:27.063Z,1015.8
2017-12-04T01:52:07.657Z,1015.74
2017-12-04T01:52:48.247Z,1015.83
2017-12-04T01:53:28.742Z,1015.79
2017-12-04T01:54:09.295Z,1015.82
2017-12-04T01:54:49.802Z,1015.82
2017-12-04T01:55:30.303Z,1015.84
2017-12-04T01:56:10.866Z,1015.86
2017-12-04T01:56:51.391Z,1015.86
2017-12-04T01:57:32.032Z,1015.88
2017-12-04T01:58:12.573Z,1015.82
2017-12-04T01:58:53.211Z,1015.82
2017-12-04T01:59:33.687Z,1015.81
2017-12-04T02:00:14.267Z,1015.79
2017-12-04T02:00:54.792Z,1015.81
2017-12-04T02:01:35.325Z,1015.83
2017-12-04T02:02:15.843Z,1015.82
2017-12-04T02:02:56.375Z,1015.82
2017-12-04T02:03:36.932Z,1015.76
2017-12-04T02:04:17.459Z,1015.76
2017-12-04T02:04:57.980Z,1015.78
2017-12-04T02:05:38.533Z,1015.72
2017-12-04T02:06:19.050Z,1015.74
2017-12-04T02:06:59.606Z,1015.78
2017-12-04T02:07:40.099Z,1015.68
2017-12-04T02:08:20.661Z,1015.72
2017-12-04T02:09:01.182Z,1015.8
2017-12-04T02:09:41.704Z,1015.72
2017-12-04T02:10:22.253Z,1015.75
2017-12-04T02:11:02.766Z,1015.76
2017-12-04T02:11:44.151Z,1015.75
2017-12-04T02:12:23.861Z,1015.81
2017-12-04T02:13:04.378Z,1015.77
2017-12-04T02:13:44.855Z,1015.81
2017-12-04T02:14:25.535Z,1015.77
2017-12-04T02:15:06.140Z,1015.76
2017-12-04T02:15:46.687Z,1015.78
2017-12-04T02:16:27.231Z,1015.75
2017-12-04T02:17:07.766Z,1015.71
2017-12-04T02:17:48.361Z,1015.73
2017-12-04T02:18:28.906Z,1015.74
2017-12-04T02:19:09.425Z,1015.73
2017-12-04T02:19:49.985Z,1015.73
2017-12-04T02:20:30.533Z,1015.71
2017-12-04T02:21:11.085Z,1015.77
2017-12-04T02:21:51.582Z,1015.82
2017-12-04T02:22:32.082Z,1015.84
2017-12-04T02:23:12.635Z,1015.83
2017-12-04T02:23:53.194Z,1015.83
2017-12-04T02:24:33.765Z,1015.81
2017-12-04T02:25:14.279Z,1015.79
2017-12-04T02:25:54.827Z,1015.79
2017-12-04T02:26:35.281Z,1015.85
2017-12-04T02:27:15.853Z,1015.83
2017-12-04T02:27:56.463Z,1015.79
2017-12-04T02:28:37.052Z,1015.8
2017-12-04T02:29:17.564Z,1015.83
2017-12-04T02:29:58.081Z,1015.85
2017-12-04T02:30:38.623Z,1015.81
2017-12-04T02:31:19.178Z,1015.78
2017-12-04T02:31:59.713Z,1015.79
2017-12-04T02:32:40.184Z,1015.81
2017-12-04T02:33:20.755Z,1015.85
2017-12-04T02:34:01.368Z,1015.8
2017-12-04T02:34:41.894Z,1015.79
2017-12-04T02:35:22.403Z,1015.76
2017-12-04T02:36:02.915Z,1015.8
2017-12-04T02:36:43.475Z,1015.79
2017-12-04T02:37:23.988Z,1015.73
2017-12-04T02:38:04.477Z,1015.81
2017-12-04T02:38:45.012Z,1015.7
2017-12-04T02:39:25.628Z,1015.74
2017-12-04T02:40:06.107Z,1015.71
2017-12-04T02:40:46.762Z,1015.68
2017-12-04T02:41:27.310Z,1015.72
2017-12-04T02:42:07.843Z,1015.7
2017-12-04T02:42:48.365Z,1015.72
2017-12-04T02:43:28.939Z,1015.77
2017-12-04T02:44:09.456Z,1015.73
2017-12-04T02:44:49.977Z,1015.75
2017-12-04T02:45:30.784Z,1015.77
2017-12-04T02:46:11.340Z,1015.76
2017-12-04T02:46:51.895Z,1015.76
2017-12-04T02:47:32.437Z,1015.78
2017-12-04T02:48:12.976Z,1015.77
2017-12-04T02:48:53.467Z,1015.76
2017-12-04T02:49:34.047Z,1015.75
2017-12-04T02:50:14.521Z,1015.78
2017-12-04T02:50:55.075Z,1015.76
2017-12-04T02:51:36.182Z,1015.76
2017-12-04T02:52:16.754Z,1015.66
2017-12-04T02:52:57.286Z,1015.71
2017-12-04T02:53:37.798Z,1015.69
2017-12-04T02:54:18.288Z,1015.7
2017-12-04T02:54:58.859Z,1015.7
2017-12-04T02:55:39.361Z,1015.69
2017-12-04T02:56:19.918Z,1015.74
2017-12-04T02:57:00.440Z,1015.73
2017-12-04T02:57:41.002Z,1015.68
2017-12-04T02:58:21.508Z,1015.73
2017-12-04T02:59:02.044Z,1015.76
2017-12-04T02:59:42.565Z,1015.73
2017-12-04T03:00:23.122Z,1015.74
2017-12-04T03:01:03.658Z,1015.73
2017-12-04T03:01:44.129Z,1015.78
2017-12-04T03:02:24.676Z,1015.75
2017-12-04T03:03:05.170Z,1015.73
2017-12-04T03:03:45.681Z,1015.73
2017-12-04T03:04:26.196Z,1015.74
2017-12-04T03:05:06.758Z,1015.69
2017-12-04T03:05:47.283Z,1015.71
2017-12-04T03:06:27.839Z,1015.78
2017-12-04T03:07:08.329Z,1015.67
2017-12-04T03:07:48.827Z,1015.75
2017-12-04T03:08:29.423Z,1015.75
2017-12-04T03:09:09.958Z,1015.73
2017-12-04T03:09:50.435Z,1015.79
2017-12-04T03:10:30.993Z,1015.74
2017-12-04T03:11:11.526Z,1015.73
2017-12-04T03:11:51.996Z,1015.8
2017-12-04T03:12:32.596Z,1015.76
2017-12-04T03:13:13.116Z,1015.77
2017-12-04T03:13:53.714Z,1015.76
2017-12-04T03:14:34.215Z,1015.72
2017-12-04T03:15:14.747Z,1015.79
2017-12-04T03:15:55.300Z,1015.84
2017-12-04T03:16:35.829Z,1015.77
2017-12-04T03:17:16.307Z,1015.79
2017-12-04T03:17:56.828Z,1015.85
2017-12-04T03:18:37.367Z,1015.85
2017-12-04T03:19:17.918Z,1015.85
2017-12-04T03:19:58.485Z,1015.85
2017-12-04T03:20:38.973Z,1015.8
2017-12-04T03:21:19.544Z,1015.81
2017-12-04T03:22:00.049Z,1015.9
2017-12-04T03:22:40.578Z,1015.85
2017-12-04T03:23:21.088Z,1015.83
2017-12-04T03:24:01.601Z,1015.77
2017-12-04T03:24:42.156Z,1015.84
2017-12-04T03:25:22.725Z,1015.89
2017-12-04T03:26:03.246Z,1015.89
2017-12-04T03:26:43.774Z,1015.88
2017-12-04T03:27:24.326Z,1015.94
2017-12-04T03:28:04.801Z,1015.88
2017-12-04T03:28:45.338Z,1015.93
2017-12-04T03:29:25.847Z,1015.92
2017-12-04T03:30:06.398Z,1015.91
2017-12-04T03:30:46.925Z,1015.89
2017-12-04T03:31:27.448Z,1015.9
2017-12-04T03:32:07.924Z,1015.97
2017-12-04T03:32:48.470Z,1015.93
2017-12-04T03:33:29.061Z,1015.99
2017-12-04T03:34:09.613Z,1015.95
2017-12-04T03:34:50.092Z,1015.98
2017-12-04T03:35:30.656Z,1016
2017-12-04T03:36:11.181Z,1015.95
2017-12-04T03:36:51.681Z,1015.99
2017-12-04T03:37:32.223Z,1015.99
2017-12-04T03:38:12.788Z,1016.01
2017-12-04T03:38:53.232Z,1016.02
2017-12-04T03:39:33.902Z,1016.06
2017-12-04T03:40:14.306Z,1016.04
2017-12-04T03:40:54.873Z,1016.02
2017-12-04T03:41:35.363Z,1016.1
2017-12-04T03:42:15.908Z,1016.08
2017-12-04T03:42:56.402Z,1016.06
2017-12-04T03:43:36.922Z,1016.07
2017-12-04T03:44:17.472Z,1016.01
2017-12-04T03:44:58.020Z,1016.05
2017-12-04T03:45:38.535Z,1016.02
2017-12-04T03:46:19.048Z,1016.01
2017-12-04T03:46:59.584Z,1016.03
2017-12-04T03:47:40.071Z,1016.04
2017-12-04T03:48:20.767Z,1016.02
2017-12-04T03:49:01.387Z,1016.02
2017-12-04T03:49:41.897Z,1016.05
2017-12-04T03:50:22.413Z,1015.99
2017-12-04T03:51:02.950Z,1015.99
2017-12-04T03:51:43.641Z,1016.05
2017-12-04T03:52:24.471Z,1016.05
2017-12-04T03:53:05.267Z,1016.04
2017-12-04T03:53:45.877Z,1016.05
2017-12-04T03:54:26.491Z,1016.08
2017-12-04T03:55:07.078Z,1016.06
2017-12-04T03:55:47.704Z,1016
2017-12-04T03:56:28.336Z,1016.05
2017-12-04T03:57:09.849Z,1016.06
2017-12-04T03:57:50.268Z,1016.05
2017-12-04T03:58:30.861Z,1016.06
2017-12-04T03:59:11.386Z,1016.04
2017-12-04T03:59:51.950Z,1016.04
2017-12-04T04:00:32.429Z,1016.03
2017-12-04T04:01:12.990Z,1016.02
2017-12-04T04:01:53.512Z,1016.02
2017-12-04T04:02:34.043Z,1016.03
2017-12-04T04:03:14.553Z,1015.97
2017-12-04T04:03:55.100Z,1016.07
2017-12-04T04:04:35.606Z,1016.04
2017-12-04T04:05:16.125Z,1016.1
2017-12-04T04:05:56.626Z,1016.1
2017-12-04T04:06:37.181Z,1016.08
2017-12-04T04:07:17.725Z,1016.11
2017-12-04T04:07:58.216Z,1016.12
2017-12-04T04:08:38.734Z,1016.1
2017-12-04T04:09:19.248Z,1016.09
2017-12-04T04:09:59.747Z,1016.11
2017-12-04T04:10:40.258Z,1016.09
2017-12-04T04:11:20.834Z,1016.14
2017-12-04T04:12:01.369Z,1016.14
2017-12-04T04:12:41.874Z,1016.14
2017-12-04T04:13:22.386Z,1016.12
2017-12-04T04:14:02.917Z,1016.08
2017-12-04T04:14:43.444Z,1016.1
2017-12-04T04:15:23.926Z,1016.14
2017-12-04T04:16:04.466Z,1016.14
2017-12-04T04:16:44.964Z,1016.13
2017-12-04T04:17:25.504Z,1016.17
2017-12-04T04:18:06.054Z,1016.2
2017-12-04T04:18:46.548Z,1016.19
2017-12-04T04:19:27.039Z,1016.25
2017-12-04T04:20:07.570Z,1016.2
2017-12-04T04:20:48.136Z,1016.19
2017-12-04T04:21:28.683Z,1016.23
2017-12-04T04:22:09.206Z,1016.22
2017-12-04T04:22:49.725Z,1016.23
2017-12-04T04:23:30.221Z,1016.17
2017-12-04T04:24:10.757Z,1016.18
2017-12-04T04:24:51.295Z,1016.15
2017-12-04T04:25:31.851Z,1016.15
2017-12-04T04:26:12.348Z,1016.14
2017-12-04T04:26:52.891Z,1016.13
2017-12-04T04:27:33.659Z,1016.08
2017-12-04T04:28:14.804Z,1016.08
2017-12-04T04:28:55.915Z,1016.09
2017-12-04T04:29:36.747Z,1016.09
2017-12-04T04:30:17.484Z,1016.07
2017-12-04T04:30:58.437Z,1016.05
2017-12-04T04:31:39.136Z,1016.02
2017-12-04T04:32:20.098Z,1016.07
2017-12-04T04:33:00.776Z,1016.09
2017-12-04T04:33:41.549Z,1016.1
2017-12-04T04:34:22.482Z,1016.09
2017-12-04T04:35:03.116Z,1016.06
2017-12-04T04:35:43.769Z,1016.13
2017-12-04T04:36:24.426Z,1016.08
2017-12-04T04:37:05.294Z,1016.13
2017-12-04T04:37:46.077Z,1016.1
2017-12-04T04:38:26.699Z,1016.07
2017-12-04T04:39:07.230Z,1016.09
2017-12-04T04:39:47.757Z,1016.12
2017-12-04T04:40:28.281Z,1016.11
2017-12-04T04:41:08.770Z,1016.07
2017-12-04T04:43:23.273Z,1016.03
2017-12-04T04:44:03.988Z,1016.05
2017-12-04T04:44:44.514Z,1016.04
2017-12-04T04:45:25.043Z,1016.04
2017-12-04T04:46:05.631Z,1016.04
2017-12-04T04:46:46.168Z,1016.04
2017-12-04T04:47:26.686Z,1016.05
2017-12-04T04:48:07.257Z,1016
2017-12-04T04:48:47.796Z,1016.04
2017-12-04T04:49:28.389Z,1016.05
2017-12-04T04:50:08.910Z,1016.08
2017-12-04T04:50:49.472Z,1016.08
2017-12-04T04:51:30.127Z,1016.01
2017-12-04T04:52:10.676Z,1016.02
2017-12-04T04:52:51.189Z,1016.06
2017-12-04T04:53:31.738Z,1016.08
2017-12-04T04:54:12.267Z,1016.06
2017-12-04T04:54:52.824Z,1016.04
2017-12-04T04:55:33.292Z,1016.01
2017-12-04T04:56:13.829Z,1016.03
2017-12-04T04:56:54.332Z,1016
2017-12-04T04:57:34.937Z,1016.05
2017-12-04T04:58:15.483Z,1015.97
2017-12-04T04:58:56.034Z,1016.02
2017-12-04T04:59:36.515Z,1016.07
2017-12-04T05:00:17.042Z,1016.11
2017-12-04T05:00:57.822Z,1016.08
2017-12-04T05:01:38.358Z,1016.03
2017-12-04T05:02:18.882Z,1016.07
2017-12-04T05:02:59.457Z,1016.05
2017-12-04T05:03:39.939Z,1016.03
2017-12-04T05:04:20.454Z,1016.04
2017-12-04T05:05:00.995Z,1016.09
2017-12-04T05:05:41.538Z,1016.06
2017-12-04T05:06:22.096Z,1016.13
2017-12-04T05:07:02.635Z,1016.21
2017-12-04T05:07:43.110Z,1016.17
2017-12-04T05:08:23.735Z,1016.21
2017-12-04T05:09:04.293Z,1016.23
2017-12-04T05:09:44.816Z,1016.26
2017-12-04T05:10:25.351Z,1016.3
2017-12-04T05:11:05.845Z,1016.25
2017-12-04T05:11:46.353Z,1016.32
2017-12-04T05:12:26.889Z,1016.29
2017-12-04T05:13:07.486Z,1016.3
2017-12-04T05:13:48.280Z,1016.35
2017-12-04T05:14:28.810Z,1016.33
2017-12-04T05:15:09.348Z,1016.41
2017-12-04T05:15:49.885Z,1016.4
2017-12-04T05:16:30.398Z,1016.4
2017-12-04T05:17:10.945Z,1016.44
2017-12-04T05:17:51.475Z,1016.46
2017-12-04T05:18:31.995Z,1016.49
2017-12-04T05:19:12.546Z,1016.42
2017-12-04T05:19:53.083Z,1016.46
2017-12-04T05:20:33.603Z,1016.44
2017-12-04T05:21:14.131Z,1016.4
2017-12-04T05:21:54.695Z,1016.44
2017-12-04T05:22:35.242Z,1016.52
2017-12-04T05:23:15.761Z,1016.5
2017-12-04T05:23:56.300Z,1016.54
2017-12-04T05:24:36.881Z,1016.5
2017-12-04T05:25:17.392Z,1016.52
2017-12-04T05:25:57.916Z,1016.49
2017-12-04T05:26:38.606Z,1016.47
2017-12-04T05:27:19.107Z,1016.47
2017-12-04T05:27:59.645Z,1016.49
2017-12-04T05:28:40.173Z,1016.47
2017-12-04T05:29:20.704Z,1016.44
2017-12-04T05:30:01.218Z,1016.47
2017-12-04T05:30:41.717Z,1016.5
2017-12-04T05:31:22.239Z,1016.47
2017-12-04T05:32:02.796Z,1016.54
2017-12-04T05:32:43.376Z,1016.52
2017-12-04T05:33:23.890Z,1016.49
2017-12-04T05:34:04.398Z,1016.54
2017-12-04T05:34:44.999Z,1016.54
2017-12-04T05:35:25.490Z,1016.57
2017-12-04T05:36:06.002Z,1016.55
2017-12-04T05:36:46.536Z,1016.53
2017-12-04T05:37:27.057Z,1016.51
2017-12-04T05:38:07.570Z,1016.54
2017-12-04T05:38:48.118Z,1016.52
2017-12-04T05:39:28.661Z,1016.51
2017-12-04T05:40:09.164Z,1016.49
2017-12-04T05:40:49.719Z,1016.44
2017-12-04T05:41:30.215Z,1016.46
2017-12-04T05:42:10.802Z,1016.48
2017-12-04T05:42:51.338Z,1016.46
2017-12-04T05:43:31.886Z,1016.41
2017-12-04T05:44:12.369Z,1016.39
2017-12-04T05:44:52.910Z,1016.41
2017-12-04T05:45:33.444Z,1016.42
2017-12-04T05:46:13.995Z,1016.39
2017-12-04T05:46:54.503Z,1016.4
2017-12-04T05:47:35.048Z,1016.47
2017-12-04T05:48:15.538Z,1016.41
2017-12-04T05:48:56.083Z,1016.42
2017-12-04T05:49:36.623Z,1016.41
2017-12-04T05:50:17.218Z,1016.4
2017-12-04T05:50:57.732Z,1016.44
2017-12-04T05:51:38.253Z,1016.42
2017-12-04T05:52:18.846Z,1016.43
2017-12-04T05:52:59.371Z,1016.46
2017-12-04T05:53:39.878Z,1016.46
2017-12-04T05:54:21.422Z,1016.44
2017-12-04T05:55:01.985Z,1016.43
2017-12-04T05:55:42.505Z,1016.43
2017-12-04T05:56:23.086Z,1016.45
2017-12-04T05:57:03.608Z,1016.49
2017-12-04T05:57:44.161Z,1016.49
2017-12-04T05:58:24.657Z,1016.48
2017-12-04T05:59:05.209Z,1016.51
2017-12-04T05:59:45.793Z,1016.53
2017-12-04T06:00:26.288Z,1016.47
2017-12-04T06:01:06.800Z,1016.51
2017-12-04T06:01:47.446Z,1016.47
2017-12-04T06:02:27.934Z,1016.46
2017-12-04T06:03:08.461Z,1016.55
2017-12-04T06:03:49.047Z,1016.48
2017-12-04T06:04:29.564Z,1016.52
2017-12-04T06:05:10.129Z,1016.5
2017-12-04T06:05:50.631Z,1016.4
2017-12-04T06:06:31.356Z,1016.42
2017-12-04T06:07:11.922Z,1016.47
2017-12-04T06:07:52.450Z,1016.5
2017-12-04T06:08:33.028Z,1016.49
2017-12-04T06:09:13.593Z,1016.56
2017-12-04T06:09:54.295Z,1016.55
2017-12-04T06:10:35.275Z,1016.56
2017-12-04T06:11:16.019Z,1016.49
2017-12-04T06:11:56.608Z,1016.51
2017-12-04T06:12:37.408Z,1016.6
2017-12-04T06:13:17.980Z,1016.61
2017-12-04T06:13:58.441Z,1016.59
2017-12-04T06:14:38.960Z,1016.63
2017-12-04T06:15:19.538Z,1016.66
2017-12-04T06:16:00.158Z,1016.65
2017-12-04T06:16:40.710Z,1016.69
2017-12-04T06:17:21.317Z,1016.64
2017-12-04T06:18:01.826Z,1016.68
2017-12-04T06:18:42.540Z,1016.66
2017-12-04T06:19:23.136Z,1016.71
2017-12-04T06:20:03.661Z,1016.69
2017-12-04T06:20:46.929Z,1016.7
2017-12-04T06:21:27.218Z,1016.7
2017-12-04T06:22:08.428Z,1016.66
2017-12-04T06:22:49.518Z,1016.68
2017-12-04T06:23:30.625Z,1016.68
2017-12-04T06:24:13.463Z,1016.65
2017-12-04T06:24:57.516Z,1016.73
2017-12-04T06:27:19.172Z,1016.68
2017-12-04T06:28:00.177Z,1016.73
2017-12-04T06:28:45.162Z,1016.7
2017-12-04T06:29:26.579Z,1016.66
2017-12-04T06:30:07.667Z,1016.72
2017-12-04T06:30:48.208Z,1016.73
2017-12-04T06:31:30.444Z,1016.76
2017-12-04T06:32:13.631Z,1016.74
2017-12-04T06:32:54.208Z,1016.73
2017-12-04T06:33:34.826Z,1016.72
2017-12-04T06:34:15.440Z,1016.73
2017-12-04T06:34:56.077Z,1016.74
2017-12-04T06:35:36.627Z,1016.75
2017-12-04T06:36:17.193Z,1016.76
2017-12-04T06:36:57.824Z,1016.71
2017-12-04T06:37:41.746Z,1016.75
2017-12-04T06:38:21.118Z,1016.79
2017-12-04T06:39:02.082Z,1016.78
2017-12-04T06:39:44.442Z,1016.8
2017-12-04T06:40:25.111Z,1016.81
2017-12-04T06:41:05.733Z,1016.84
2017-12-04T06:43:32.069Z,1016.88
2017-12-04T06:44:13.736Z,1016.95
2017-12-04T06:44:54.488Z,1016.96
2017-12-04T06:45:35.100Z,1016.98
2017-12-04T06:46:15.973Z,1016.93
2017-12-04T06:46:56.621Z,1016.98
2017-12-04T06:47:37.127Z,1016.98
2017-12-04T06:48:17.674Z,1016.99
2017-12-04T06:48:58.243Z,1016.99
2017-12-04T06:49:39.775Z,1017.02
2017-12-04T06:50:20.386Z,1017.01
2017-12-04T06:51:00.974Z,1017.09
2017-12-04T06:51:41.482Z,1017.05
2017-12-04T06:52:22.193Z,1017.09
2017-12-04T06:53:02.954Z,1017.06
2017-12-04T06:53:43.527Z,1017.13
2017-12-04T06:54:24.089Z,1017.09
2017-12-04T06:55:04.595Z,1017.1
2017-12-04T06:55:45.200Z,1017.1
2017-12-04T06:56:25.676Z,1017.12
2017-12-04T06:57:06.316Z,1017.15
2017-12-04T06:57:46.882Z,1017.12
2017-12-04T06:58:29.252Z,1017.15
2017-12-04T06:59:09.882Z,1017.14
2017-12-04T06:59:50.460Z,1017.15
2017-12-04T07:00:31.044Z,1017.14
2017-12-04T07:01:11.585Z,1017.15
2017-12-04T07:01:52.307Z,1017.12
2017-12-04T07:02:32.843Z,1017.08
2017-12-04T07:03:13.400Z,1017.1
2017-12-04T07:03:53.948Z,1017.15
2017-12-04T07:04:34.502Z,1017.19
2017-12-04T07:05:15.203Z,1017.17
2017-12-04T07:05:55.841Z,1017.15
2017-12-04T07:06:36.404Z,1017.17
2017-12-04T07:07:17.019Z,1017.18
2017-12-04T07:07:57.626Z,1017.2
2017-12-04T07:08:38.206Z,1017.24
2017-12-04T07:09:18.771Z,1017.2
2017-12-04T07:09:59.271Z,1017.2
2017-12-04T07:10:39.798Z,1017.23
2017-12-04T07:11:20.410Z,1017.25
2017-12-04T07:12:00.889Z,1017.28
2017-12-04T07:12:41.482Z,1017.28
2017-12-04T07:13:22.329Z,1017.23
2017-12-04T07:14:02.882Z,1017.27
2017-12-04T07:14:43.478Z,1017.28
2017-12-04T07:15:24.011Z,1017.26
2017-12-04T07:16:04.566Z,1017.28
2017-12-04T07:16:45.098Z,1017.32
2017-12-04T07:17:25.620Z,1017.24
2017-12-04T07:18:06.183Z,1017.27
2017-12-04T07:18:46.808Z,1017.27
2017-12-04T07:19:27.356Z,1017.29
2017-12-04T07:20:07.934Z,1017.25
2017-12-04T07:20:48.494Z,1017.32
2017-12-04T07:21:29.052Z,1017.31
2017-12-04T07:22:09.589Z,1017.25
2017-12-04T07:22:50.122Z,1017.28
2017-12-04T07:23:30.704Z,1017.3
2017-12-04T07:24:11.299Z,1017.3
2017-12-04T07:24:51.936Z,1017.36
2017-12-04T07:25:32.697Z,1017.36
2017-12-04T07:26:13.256Z,1017.4
2017-12-04T07:26:54.066Z,1017.45
2017-12-04T07:27:34.425Z,1017.42
2017-12-04T07:28:15.223Z,1017.38
2017-12-04T07:28:55.906Z,1017.45
2017-12-04T07:29:36.547Z,1017.52
2017-12-04T07:30:17.236Z,1017.54
2017-12-04T07:30:57.867Z,1017.53
2017-12-04T07:31:38.731Z,1017.55
2017-12-04T07:32:19.469Z,1017.56
2017-12-04T07:33:00.309Z,1017.6
2017-12-04T07:33:41.156Z,1017.66
2017-12-04T07:34:23.609Z,1017.64
2017-12-04T07:35:04.328Z,1017.63
2017-12-04T07:35:45.150Z,1017.62
2017-12-04T07:36:26.229Z,1017.61
2017-12-04T07:37:06.645Z,1017.6
2017-12-04T07:37:49.462Z,1017.64
2017-12-04T07:38:29.983Z,1017.64
2017-12-04T07:39:10.608Z,1017.63
2017-12-04T07:39:52.768Z,1017.63
2017-12-04T07:40:33.344Z,1017.66
2017-12-04T07:41:15.725Z,1017.63
2017-12-04T07:41:56.275Z,1017.71
2017-12-04T07:42:36.841Z,1017.63
2017-12-04T07:43:17.373Z,1017.67
2017-12-04T07:43:58.057Z,1017.65
2017-12-04T07:44:40.474Z,1017.72
2017-12-04T07:45:21.200Z,1017.67
2017-12-04T07:46:01.727Z,1017.7
2017-12-04T07:46:42.381Z,1017.72
2017-12-04T07:47:23.008Z,1017.72
2017-12-04T07:48:03.570Z,1017.67
2017-12-04T07:48:44.085Z,1017.63
2017-12-04T07:49:25.306Z,1017.65
2017-12-04T07:50:05.799Z,1017.58
2017-12-04T07:50:46.394Z,1017.63
2017-12-04T07:51:26.981Z,1017.67
2017-12-04T07:52:07.552Z,1017.62
2017-12-04T07:52:50.686Z,1017.65
2017-12-04T07:53:31.220Z,1017.65
2017-12-04T07:54:11.772Z,1017.62
2017-12-04T07:54:52.324Z,1017.61
2017-12-04T07:55:32.882Z,1017.59
2017-12-04T07:56:13.438Z,1017.64
2017-12-04T07:56:56.169Z,1017.62
2017-12-04T07:57:38.299Z,1017.64
2017-12-04T07:58:18.866Z,1017.69
2017-12-04T07:58:59.718Z,1017.65
2017-12-04T07:59:40.150Z,1017.64
2017-12-04T08:00:20.855Z,1017.67
2017-12-04T08:01:01.456Z,1017.77
2017-12-04T08:01:42.634Z,1017.73
2017-12-04T08:02:22.585Z,1017.69
2017-12-04T08:03:03.122Z,1017.71
2017-12-04T08:03:43.687Z,1017.77
2017-12-04T08:04:24.194Z,1017.72
2017-12-04T08:05:04.782Z,1017.75
2017-12-04T08:05:45.370Z,1017.76
2017-12-04T08:06:25.916Z,1017.75
2017-12-04T08:07:06.464Z,1017.75
2017-12-04T08:07:46.923Z,1017.8
2017-12-04T08:08:27.529Z,1017.78
2017-12-04T08:09:08.072Z,1017.78
2017-12-04T08:09:48.595Z,1017.82
2017-12-04T08:10:29.177Z,1017.75
2017-12-04T08:11:10.697Z,1017.79
2017-12-04T08:11:51.228Z,1017.81
2017-12-04T08:12:32.055Z,1017.75
2017-12-04T08:13:12.673Z,1017.85
2017-12-04T08:13:53.176Z,1017.77
2017-12-04T08:14:33.774Z,1017.83
2017-12-04T08:15:14.435Z,1017.81
2017-12-04T08:15:55.007Z,1017.79
2017-12-04T08:16:35.806Z,1017.81
2017-12-04T08:17:16.406Z,1017.82
2017-12-04T08:17:57.912Z,1017.79
2017-12-04T08:18:38.411Z,1017.83